Time;durP1;ratioP1;P1;durP2;ratioP2;P2;SDS_P1;SDS_P2;PMS_P1;PMS_P2;Temp;Humidity;BMP_temperature;BMP_pressure;BME280_temperature;BME280_humidity;BME280_pressure;Samples;Min_cycle;Max_cycle;Signal;HPM_P1;HPM_P2
2022/05/30 00:00:21;;;;;;;13.55;6.43;;;;;;;6.83;100.00;162351.13;5072135;28;20047;-58
2022/05/30 00:02:47;;;;;;;13.57;5.85;;;;;;;6.74;100.00;162326.94;5072900;28;20016;-58
2022/05/30 00:05:14;;;;;;;21.52;6.03;;;;;;;6.67;100.00;162310.72;5072020;28;20021;-58
2022/05/30 00:07:40;;;;;;;11.40;4.70;;;;;;;6.62;100.00;162295.94;5072984;28;20028;-57
2022/05/30 00:10:07;;;;;;;12.10;5.15;;;;;;;6.53;100.00;162271.72;5071947;28;20031;-58
2022/05/30 00:12:33;;;;;;;11.75;4.35;;;;;;;6.36;100.00;162228.63;5073167;28;20506;-58
2022/05/30 00:14:59;;;;;;;12.50;4.97;;;;;;;6.32;100.00;162217.88;5072781;28;20039;-58
2022/05/30 00:17:25;;;;;;;10.80;6.57;;;;;;;6.24;100.00;162197.66;5071759;28;20036;-58
2022/05/30 00:19:51;;;;;;;9.63;5.45;;;;;;;6.18;100.00;162181.50;5073027;28;20016;-58
2022/05/30 00:22:16;;;;;;;9.35;5.13;;;;;;;6.12;100.00;162165.38;5071887;28;20044;-58
2022/05/30 00:24:43;;;;;;;15.07;6.72;;;;;;;6.01;100.00;162137.09;5072277;28;20040;-58
2022/05/30 00:27:09;;;;;;;8.15;5.95;;;;;;;5.89;100.00;162106.09;5071616;28;20123;-57
2022/05/30 00:29:34;;;;;;;8.88;5.90;;;;;;;5.71;100.00;162060.34;5073242;28;20111;-58
2022/05/30 00:32:00;;;;;;;10.85;5.43;;;;;;;5.67;100.00;162048.22;5070967;28;20402;-58
2022/05/30 00:34:26;;;;;;;17.67;5.55;;;;;;;5.58;100.00;162025.38;5073029;28;20065;-58
2022/05/30 00:36:52;;;;;;;10.63;6.20;;;;;;;5.53;100.00;162013.25;5071076;28;20037;-58
2022/05/30 00:39:18;;;;;;;10.02;5.57;;;;;;;5.46;100.00;161993.09;5072380;28;20036;-58
2022/05/30 00:41:44;;;;;;;10.35;5.90;;;;;;;5.39;100.00;161976.97;5071132;28;20059;-58
2022/05/30 00:44:09;;;;;;;11.15;4.38;;;;;;;5.31;100.00;161955.44;5072735;28;20024;-58
2022/05/30 00:46:34;;;;;;;7.63;4.20;;;;;;;5.22;100.00;161931.19;5070796;28;20102;-58
2022/05/30 00:49:06;;;;;;;12.05;4.45;;;;;;;5.10;100.00;161898.94;5072351;28;20040;-58
2022/05/30 00:51:39;;;;;;;13.13;4.63;;;;;;;5.01;100.00;161877.41;5071125;28;20040;-57
2022/05/30 00:54:08;;;;;;;7.15;5.00;;;;;;;4.95;100.00;161859.91;5072063;28;20028;-58
2022/05/30 00:56:37;;;;;;;12.48;6.57;;;;;;;4.89;100.00;161846.47;5070933;28;20040;-58
2022/05/30 00:59:04;;;;;;;14.15;7.72;;;;;;;4.85;100.00;161834.38;5071537;28;20537;-58
2022/05/30 01:01:31;;;;;;;14.73;6.47;;;;;;;4.81;100.00;161824.97;5070679;28;20071;-58
2022/05/30 01:06:45;;;;;;;8.90;6.28;;;;;;;4.76;100.00;161812.84;5070748;28;20098;-58
2022/05/30 01:09:14;;;;;;;9.48;5.70;;;;;;;4.76;100.00;161812.84;5071837;28;20032;-58
2022/05/30 01:12:10;;;;;;;7.45;5.57;;;;;;;4.73;100.00;161804.75;5070532;28;20491;-58
2022/05/30 01:14:41;;;;;;;10.68;6.00;;;;;;;4.72;100.00;161802.13;5063500;28;20043;-58
2022/05/30 01:17:10;;;;;;;8.75;6.80;;;;;;;4.69;100.00;161794.03;5070028;28;20052;-58
2022/05/30 01:20:02;;;;;;;13.65;8.05;;;;;;;4.70;100.00;161796.72;5071962;28;20029;-58
2022/05/30 01:23:13;;;;;;;12.35;8.15;;;;;;;4.72;100.00;161802.13;5070402;28;20044;-58
2022/05/30 01:26:10;;;;;;;9.52;3.90;;;;;;;4.71;100.00;161799.41;5069986;28;20388;-58
2022/05/30 01:28:41;;;;;;;7.25;4.45;;;;;;;4.71;100.00;161799.41;5071914;28;20392;-58
2022/05/30 01:31:08;;;;;;;13.15;6.80;;;;;;;4.73;100.00;161804.75;5070224;28;20037;-58
2022/05/30 01:33:33;;;;;;;9.07;5.60;;;;;;;4.78;100.00;161815.56;5071876;28;20033;-57
2022/05/30 01:35:59;;;;;;;10.20;6.10;;;;;;;4.86;100.00;161837.06;5070058;28;20428;-58
2022/05/30 01:38:24;;;;;;;16.05;6.20;;;;;;;4.92;100.00;161853.19;5071238;28;20036;-58
2022/05/30 01:40:50;;;;;;;11.55;6.53;;;;;;;4.97;100.00;161866.63;5069894;28;20036;-58
2022/05/30 01:43:16;;;;;;;18.90;7.38;;;;;;;5.04;100.00;161885.47;5072109;28;20055;-58
2022/05/30 01:45:41;;;;;;;12.77;7.45;;;;;;;5.11;100.00;161901.59;5069510;28;20047;-58
2022/05/30 01:48:08;;;;;;;14.85;6.88;;;;;;;5.17;100.00;161919.09;5071463;28;20024;-57
2022/05/30 01:50:34;;;;;;;11.73;6.50;;;;;;;5.24;100.00;161936.59;5070300;28;20093;-58
2022/05/30 01:53:00;;;;;;;10.32;6.35;;;;;;;5.21;100.00;161928.50;5070949;28;20029;-58
2022/05/30 01:55:26;;;;;;;7.30;5.07;;;;;;;5.24;100.00;161936.59;5069786;28;20507;-58
2022/05/30 01:57:51;;;;;;;7.35;5.55;;;;;;;5.16;100.00;161916.41;5070975;28;20043;-58
2022/05/30 02:00:17;;;;;;;12.00;8.00;;;;;;;5.18;100.00;161921.78;5069432;28;20052;-58
2022/05/30 02:02:42;;;;;;;10.80;6.78;;;;;;;5.24;100.00;161937.91;5070934;28;20028;-58
2022/05/30 02:05:08;;;;;;;8.52;6.00;;;;;;;5.28;100.00;161946.00;5069705;28;20039;-58
2022/05/30 02:07:33;;;;;;;12.48;9.45;;;;;;;5.29;100.00;161948.72;5070706;28;20020;-58
2022/05/30 02:09:59;;;;;;;14.43;7.70;;;;;;;5.30;100.00;161952.72;5070855;28;20033;-58
2022/05/30 02:12:24;;;;;;;22.63;9.30;;;;;;;5.32;100.00;161956.75;5069575;28;20101;-58
2022/05/30 02:14:49;;;;;;;10.70;6.47;;;;;;;5.33;100.00;161959.44;5070198;28;20552;-58
2022/05/30 02:17:15;;;;;;;12.70;7.03;;;;;;;5.31;100.00;161955.44;5069355;28;20052;-58
2022/05/30 02:19:43;;;;;;;7.47;6.10;;;;;;;5.22;100.00;161931.19;5070536;28;20024;-58
2022/05/30 02:22:18;;;;;;;7.93;5.38;;;;;;;5.12;100.00;161904.28;5069105;28;20599;-58
2022/05/30 02:24:44;;;;;;;15.07;7.68;;;;;;;5.04;100.00;161885.47;5070560;28;20514;-58
2022/05/30 02:27:12;;;;;;;7.78;7.07;;;;;;;4.97;100.00;161866.63;5069218;28;20046;-57
2022/05/30 02:29:37;;;;;;;11.80;8.23;;;;;;;4.93;100.00;161855.91;5070459;28;20107;-57
2022/05/30 02:32:03;;;;;;;13.38;7.60;;;;;;;4.90;100.00;161847.81;5068795;28;20055;-58
2022/05/30 02:37:12;;;;;;;12.85;7.28;;;;;;;4.92;100.00;161854.53;5068738;28;20425;-57
2022/05/30 02:39:38;;;;;;;12.18;6.72;;;;;;;4.93;100.00;161855.91;5070448;28;20632;-58
2022/05/30 02:42:04;;;;;;;23.02;7.35;;;;;;;4.94;100.00;161858.59;5069029;28;20059;-57
2022/05/30 02:44:29;;;;;;;11.43;8.15;;;;;;;4.98;100.00;161869.31;5070601;28;20091;-57
2022/05/30 02:46:59;;;;;;;15.27;8.02;;;;;;;5.03;100.00;161881.44;5068977;28;20444;-57
2022/05/30 02:49:26;;;;;;;15.25;7.50;;;;;;;5.06;100.00;161890.84;5070666;28;20032;-58
2022/05/30 02:51:52;;;;;;;18.45;8.00;;;;;;;5.12;100.00;161904.28;5068580;28;20040;-58
2022/05/30 02:54:18;;;;;;;10.20;8.25;;;;;;;5.11;100.00;161902.97;5070726;28;20028;-57
2022/05/30 02:56:49;;;;;;;12.55;8.20;;;;;;;5.11;100.00;161902.97;5068636;28;20388;-58
2022/05/30 02:59:15;;;;;;;25.48;11.45;;;;;;;5.16;100.00;161915.06;5070330;28;20031;-58
2022/05/30 03:01:40;;;;;;;13.93;9.52;;;;;;;5.15;100.00;161912.38;5068845;28;20036;-58
2022/05/30 03:04:06;;;;;;;16.65;8.27;;;;;;;5.11;100.00;161901.59;5070362;28;20059;-58
2022/05/30 03:06:31;;;;;;;14.25;7.10;;;;;;;5.05;100.00;161886.81;5068502;28;20045;-58
2022/05/30 03:08:57;;;;;;;12.30;6.95;;;;;;;4.97;100.00;161865.31;5070432;28;20074;-58
2022/05/30 03:11:23;;;;;;;19.70;9.70;;;;;;;4.96;100.00;161863.94;5068730;28;20043;-57
2022/05/30 03:13:48;;;;;;;12.70;9.43;;;;;;;4.95;100.00;161859.91;5069718;28;20387;-58
2022/05/30 03:16:14;;;;;;;11.88;8.32;;;;;;;5.00;100.00;161874.72;5068782;28;20036;-57
2022/05/30 03:18:39;;;;;;;16.33;8.45;;;;;;;5.01;100.00;161877.41;5070274;28;20032;-58
2022/05/30 03:21:05;;;;;;;16.52;8.68;;;;;;;5.02;100.00;161880.13;5068585;28;20384;-57
2022/05/30 03:23:30;;;;;;;13.70;8.52;;;;;;;5.01;100.00;161877.41;5072810;28;20016;-58
2022/05/30 03:25:56;;;;;;;14.95;9.48;;;;;;;5.02;100.00;161880.13;5072358;28;20613;-57
2022/05/30 03:28:21;;;;;;;20.52;9.55;;;;;;;5.05;100.00;161886.81;5073897;28;20024;-58
2022/05/30 03:30:46;;;;;;;14.77;8.43;;;;;;;5.07;100.00;161893.53;5072414;28;20460;-58
2022/05/30 03:33:12;;;;;;;20.73;11.27;;;;;;;5.11;100.00;161901.59;5074218;28;20028;-58
2022/05/30 03:35:38;;;;;;;15.65;10.02;;;;;;;5.07;100.00;161893.53;5072393;28;20032;-58
2022/05/30 03:38:04;;;;;;;21.10;9.00;;;;;;;5.17;100.00;161917.78;5073747;28;20070;-57
2022/05/30 03:40:30;;;;;;;32.33;10.88;;;;;;;5.18;100.00;161920.41;5072455;28;20048;-58
2022/05/30 03:42:55;;;;;;;20.27;11.27;;;;;;;5.18;100.00;161921.78;5073686;28;20063;-58
2022/05/30 03:45:21;;;;;;;11.63;8.50;;;;;;;5.20;100.00;161925.81;5072213;28;20020;-58
2022/05/30 03:47:47;;;;;;;16.27;8.77;;;;;;;5.22;100.00;161931.19;5073524;28;20363;-57
2022/05/30 03:50:18;;;;;;;16.42;8.82;;;;;;;5.25;100.00;161939.25;5072615;28;20043;-58
2022/05/30 03:52:44;;;;;;;17.23;9.25;;;;;;;5.22;100.00;161931.19;5072869;28;20066;-58
2022/05/30 03:55:15;;;;;;;10.43;8.70;;;;;;;5.29;100.00;161950.03;5071960;28;20028;-57
2022/05/30 03:57:41;;;;;;;20.58;9.70;;;;;;;5.28;100.00;161947.34;5073492;28;20103;-58
2022/05/30 04:00:13;;;;;;;16.67;8.80;;;;;;;5.27;100.00;161943.31;5071868;28;20104;-57
2022/05/30 04:02:39;;;;;;;16.10;8.30;;;;;;;5.25;100.00;161939.25;5073193;28;20032;-58
2022/05/30 04:05:05;;;;;;;14.45;10.10;;;;;;;5.22;100.00;161931.19;5072221;28;20021;-58
2022/05/30 04:07:30;;;;;;;20.20;9.75;;;;;;;5.18;100.00;161921.78;5073267;28;20028;-58
2022/05/30 04:09:56;;;;;;;15.43;8.10;;;;;;;5.15;100.00;161912.38;5073373;28;20027;-58
2022/05/30 04:12:22;;;;;;;22.92;13.38;;;;;;;5.11;100.00;161901.59;5071620;28;20071;-58
2022/05/30 04:14:58;;;;;;;20.42;10.07;;;;;;;5.10;100.00;161898.94;5072626;28;20035;-58
2022/05/30 04:17:24;;;;;;;19.55;10.10;;;;;;;5.05;100.00;161886.81;5071558;28;20051;-58
2022/05/30 04:19:50;;;;;;;16.98;9.23;;;;;;;5.05;100.00;161888.16;5073124;28;20032;-57
2022/05/30 04:22:15;;;;;;;25.90;11.40;;;;;;;5.02;100.00;161880.13;5071359;28;20404;-58
2022/05/30 04:24:41;;;;;;;15.15;9.25;;;;;;;5.01;100.00;161877.41;5072874;28;20040;-58
2022/05/30 04:27:06;;;;;;;14.02;11.15;;;;;;;5.04;100.00;161884.13;5071537;28;20037;-58
2022/05/30 04:29:32;;;;;;;13.80;9.73;;;;;;;5.02;100.00;161880.13;5072620;28;20107;-58
2022/05/30 04:31:59;;;;;;;11.57;8.98;;;;;;;5.16;100.00;161915.06;5071217;28;20053;-58
2022/05/30 04:34:24;;;;;;;19.95;10.60;;;;;;;5.30;100.00;161952.72;5071638;28;20024;-58
2022/05/30 04:36:49;;;;;;;18.30;8.80;;;;;;;5.43;100.00;161986.38;5070810;28;20434;-58
2022/05/30 04:39:15;;;;;;;17.95;9.93;;;;;;;5.58;100.00;162025.38;5072757;28;20089;-57
2022/05/30 04:41:41;;;;;;;16.92;10.85;;;;;;;5.76;100.00;162072.44;5071077;28;20040;-58
2022/05/30 04:44:06;;;;;;;25.00;13.00;;;;;;;5.96;100.00;162124.94;5072411;28;20059;-58
2022/05/30 04:46:31;;;;;;;23.48;9.65;;;;;;;6.10;100.00;162159.97;5071170;28;20045;-58
2022/05/30 04:48:57;;;;;;;34.10;10.82;;;;;;;6.31;100.00;162215.16;5072415;28;20032;-58
2022/05/30 04:51:23;;;;;;;15.18;9.30;;;;;;;6.46;100.00;162254.19;5070865;28;20445;-58
2022/05/30 04:53:48;;;;;;;17.05;9.25;;;;;;;6.60;100.00;162291.88;5072134;28;20024;-58
2022/05/30 04:56:14;;;;;;;18.20;10.65;;;;;;;6.80;100.00;162343.06;5071026;28;20032;-58
2022/05/30 04:58:39;;;;;;;25.33;10.20;;;;;;;6.93;100.00;162378.06;5072434;28;20024;-58
2022/05/30 05:01:08;;;;;;;14.52;9.27;;;;;;;7.12;100.00;162426.53;5070946;28;20032;-58
2022/05/30 05:03:37;;;;;;;23.52;9.88;;;;;;;7.30;100.00;162475.03;5072344;28;20074;-58
2022/05/30 05:06:12;;;;;;;22.27;8.57;;;;;;;7.44;100.00;162510.06;5070474;28;20028;-58
2022/05/30 05:09:14;;;;;;;15.45;6.57;;;;;;;7.64;100.00;162562.59;5072559;28;20027;-58
2022/05/30 05:11:40;;;;;;;12.43;7.28;;;;;;;7.85;100.00;162616.47;5070541;28;20062;-58
2022/05/30 05:14:05;;;;;;;15.43;7.05;;;;;;;8.02;100.00;162660.94;5071808;28;20094;-58
2022/05/30 05:16:31;;;;;;;10.27;5.05;;;;;;;7.99;100.00;162652.88;5070387;28;20040;-58
2022/05/30 05:18:57;;;;;;;15.15;6.35;;;;;;;8.21;100.00;162712.19;5071792;28;20028;-58
2022/05/30 05:21:33;;;;;;;15.63;6.72;;;;;;;8.40;100.00;162760.69;5070305;28;20036;-58
2022/05/30 05:23:59;;;;;;;11.13;5.22;;;;;;;8.48;100.00;162780.97;5071819;28;20024;-58
2022/05/30 05:26:24;;;;;;;15.85;7.63;;;;;;;8.60;100.00;162811.97;5070234;28;20049;-58
2022/05/30 05:28:50;;;;;;;16.92;5.28;;;;;;;8.67;100.00;162832.19;5071429;28;20024;-58
2022/05/30 05:31:34;;;;;;;12.20;4.55;;;;;;;8.81;100.00;162868.59;5070446;28;20033;-58
2022/05/30 05:34:06;;;;;;;9.02;4.88;;;;;;;9.01;100.00;162919.81;5071523;28;20097;-58
2022/05/30 05:36:34;;;;;;;8.85;3.65;;;;;;;9.04;100.00;162927.94;5070062;28;20074;-58
2022/05/30 05:39:00;;;;;;;7.95;4.45;;;;;;;9.15;100.00;162957.56;5071345;28;20032;-58
2022/05/30 05:41:26;;;;;;;13.48;4.03;;;;;;;9.19;100.00;162968.38;5069840;28;20407;-58
2022/05/30 05:43:54;;;;;;;6.82;4.28;;;;;;;9.26;100.00;162984.56;5071377;28;20021;-58
2022/05/30 05:46:22;;;;;;;15.63;5.60;;;;;;;9.27;100.00;162987.28;5069821;28;20036;-58
2022/05/30 05:48:48;;;;;;;8.37;4.17;;;;;;;9.50;100.00;163049.28;5071122;28;20031;-58
2022/05/30 05:51:14;;;;;;;9.50;5.55;;;;;;;9.55;100.00;163060.09;5069610;28;20036;-58
2022/05/30 05:53:40;;;;;;;6.43;3.17;;;;;;;9.61;100.00;163076.28;5071079;28;20387;-58
2022/05/30 05:56:17;;;;;;;7.82;3.65;;;;;;;9.63;100.00;163081.69;5069867;28;20123;-58
2022/05/30 05:58:43;;;;;;;11.00;5.00;;;;;;;9.45;100.00;163034.47;5070639;28;20491;-58
2022/05/30 06:01:14;;;;;;;11.85;4.20;;;;;;;9.33;100.00;163003.44;5069624;28;20044;-58
2022/05/30 06:03:40;;;;;;;12.30;3.72;;;;;;;9.38;100.00;163016.91;5070896;28;20107;-58
2022/05/30 06:06:06;;;;;;;17.52;5.18;;;;;;;9.39;100.00;163019.63;5069814;28;20039;-58
2022/05/30 06:08:32;;;;;;;7.35;3.25;;;;;;;9.39;100.00;163019.63;5071291;28;20029;-58
2022/05/30 06:11:05;;;;;;;8.57;3.10;;;;;;;9.34;100.00;163006.16;5069361;28;20044;-58
2022/05/30 06:13:30;;;;;;;13.45;4.43;;;;;;;9.42;100.00;163027.69;5070833;28;20032;-58
2022/05/30 06:15:56;;;;;;;9.65;2.90;;;;;;;9.46;100.00;163038.50;5069069;28;20099;-58
2022/05/30 06:18:21;;;;;;;21.83;4.53;;;;;;;9.35;100.00;163008.81;5071191;28;20025;-58
2022/05/30 06:20:46;;;;;;;13.23;3.72;;;;;;;9.48;100.00;163043.91;5069036;28;20036;-58
2022/05/30 06:23:11;;;;;;;23.55;4.13;;;;;;;9.58;100.00;163068.16;5070677;28;20467;-58
2022/05/30 06:25:37;;;;;;;14.57;3.28;;;;;;;9.62;100.00;163080.31;5069343;28;20045;-58
2022/05/30 06:28:02;;;;;;;13.60;5.60;;;;;;;9.64;100.00;163085.72;5070519;28;20039;-58
2022/05/30 06:30:28;;;;;;;8.70;4.05;;;;;;;9.83;100.00;163135.63;5069174;28;20050;-58
2022/05/30 06:32:53;;;;;;;5.93;2.42;;;;;;;10.07;100.00;163197.69;5070440;28;20025;-58
2022/05/30 06:35:18;;;;;;;7.32;3.35;;;;;;;10.24;100.00;163240.91;5068476;28;20021;-59
2022/05/30 06:37:44;;;;;;;7.70;2.45;;;;;;;10.38;100.00;163277.34;5070396;28;20078;-59
2022/05/30 06:40:09;;;;;;;8.50;2.80;;;;;;;10.63;100.00;163343.50;5069484;28;20043;-57
2022/05/30 06:42:35;;;;;;;8.10;2.40;;;;;;;10.70;100.00;163362.38;5070063;28;20029;-58
2022/05/30 06:45:00;;;;;;;14.75;2.38;;;;;;;10.79;100.00;163386.69;5070363;28;20027;-58
2022/05/30 06:47:25;;;;;;;14.95;5.00;;;;;;;10.88;100.00;163409.63;5069116;28;20051;-58
2022/05/30 06:49:51;;;;;;;9.13;2.47;;;;;;;10.74;100.00;163371.84;5070217;28;20464;-58
2022/05/30 06:52:16;;;;;;;6.25;1.98;;;;;;;10.98;100.00;163435.31;5068965;28;20433;-59
2022/05/30 06:54:42;;;;;;;10.45;2.58;;;;;;;11.27;100.00;163510.94;5070159;28;20025;-59
2022/05/30 06:59:51;;;;;;;7.05;2.40;;;;;;;11.39;100.00;163543.31;5070555;28;20044;-59
2022/05/30 07:02:17;;;;;;;4.50;1.80;;;;;;;11.49;100.00;163567.63;5068957;28;20037;-59
2022/05/30 07:04:42;;;;;;;7.82;2.67;;;;;;;11.59;100.00;163594.63;5069774;28;20104;-59
2022/05/30 07:07:07;;;;;;;6.22;2.95;;;;;;;11.35;100.00;163532.53;5068849;28;20044;-59
2022/05/30 07:09:33;;;;;;;4.07;1.85;;;;;;;11.53;100.00;163578.41;5070615;28;20027;-59
2022/05/30 07:11:59;;;;;;;12.35;3.22;;;;;;;11.72;100.00;163629.78;5068414;28;20543;-59
2022/05/30 07:14:24;;;;;;;8.10;2.53;;;;;;;11.83;100.00;163656.75;5070230;28;20024;-59
2022/05/30 07:16:50;;;;;;;4.55;2.35;;;;;;;11.74;100.00;163635.16;5068519;28;20036;-59
2022/05/30 07:19:16;;;;;;;6.85;1.90;;;;;;;12.03;100.00;163710.84;5069635;28;20029;-59
2022/05/30 07:21:41;;;;;;;2.35;1.98;;;;;;;12.38;100.00;163802.75;5068576;28;20064;-60
2022/05/30 07:24:07;;;;;;;5.82;1.50;;;;;;;12.79;100.00;163908.13;5070021;28;20518;-59
2022/05/30 07:26:32;;;;;;;7.63;3.17;;;;;;;12.86;100.00;163927.06;5068344;28;20037;-59
2022/05/30 07:28:58;;;;;;;8.13;2.03;;;;;;;13.04;100.00;163973.03;5069954;28;20043;-59
2022/05/30 07:31:28;;;;;;;4.38;2.28;;;;;;;12.95;100.00;163951.41;5068690;28;20048;-59
2022/05/30 07:33:54;;;;;;;4.05;1.42;;;;;;;12.70;100.00;163886.50;5069660;28;20020;-59
2022/05/30 07:36:24;;;;;;;4.80;2.20;;;;;;;12.31;100.00;163783.84;5068624;28;20071;-59
2022/05/30 07:38:50;;;;;;;5.53;2.58;;;;;;;11.98;100.00;163697.34;5070053;28;20034;-59
2022/05/30 07:41:16;;;;;;;7.05;2.30;;;;;;;12.01;100.00;163705.47;5068281;28;20464;-59
2022/05/30 07:43:41;;;;;;;8.30;4.00;;;;;;;11.71;100.00;163627.06;5069876;28;20020;-59
2022/05/30 07:46:08;;;;;;;8.20;1.98;;;;;;;11.64;100.00;163608.16;5068646;28;20040;-59
2022/05/30 07:48:35;;;;;;;6.53;3.20;;;;;;;12.01;100.00;163705.47;5069512;28;20048;-59
2022/05/30 07:51:01;;;;;;;8.25;2.35;;;;;;;12.40;100.00;163805.47;5068312;28;20032;-59
2022/05/30 07:53:27;;;;;;;4.18;1.65;;;;;;;13.05;100.00;163975.75;5069875;28;20017;-59
2022/05/30 07:55:53;;;;;;;7.03;1.83;;;;;;;13.56;100.00;164111.00;5067655;28;20037;-59
2022/05/30 07:58:18;;;;;;;1.75;1.65;;;;;;;14.04;100.00;164235.38;5069965;28;20056;-59
2022/05/30 08:00:44;;;;;;;6.30;2.33;;;;;;;14.12;100.00;164257.03;5068119;28;20041;-59
2022/05/30 08:03:15;;;;;;;3.95;1.63;;;;;;;13.76;100.00;164162.38;5069548;28;20025;-59
2022/05/30 08:05:43;;;;;;;5.05;2.50;;;;;;;13.49;100.00;164092.06;5068356;28;20033;-60
2022/05/30 08:08:08;;;;;;;3.95;2.00;;;;;;;13.38;100.00;164062.25;5070140;28;20024;-58
2022/05/30 08:10:33;;;;;;;5.38;2.00;;;;;;;13.12;100.00;163994.66;5071718;28;20094;-59
2022/05/30 08:12:59;;;;;;;7.32;2.85;;;;;;;12.80;100.00;163910.84;5072959;28;20383;-59
2022/05/30 08:15:24;;;;;;;3.78;2.58;;;;;;;11.98;100.00;163697.34;5071599;28;20041;-59
2022/05/30 08:17:57;;;;;;;9.00;2.10;;;;;;;12.10;100.00;163727.09;5072622;28;20032;-59
2022/05/30 08:20:24;;;;;;;4.28;1.80;;;;;;;12.00;100.00;163702.75;5071734;28;20555;-59
2022/05/30 08:22:49;;;;;;;4.63;1.80;;;;;;;11.78;100.00;163643.28;5072505;28;20024;-59
2022/05/30 08:25:17;;;;;;;14.60;2.28;;;;;;;11.40;100.00;163546.03;5071306;28;20045;-59
2022/05/30 08:27:44;;;;;;;5.90;1.95;;;;;;;11.13;100.00;163473.13;5073082;28;20021;-59
2022/05/30 08:30:12;;;;;;;5.60;2.22;;;;;;;11.18;100.00;163486.59;5071507;28;20099;-59
2022/05/30 08:32:40;;;;;;;6.18;1.50;;;;;;;11.33;100.00;163527.13;5072444;28;20508;-59
2022/05/30 08:35:06;;;;;;;2.83;1.85;;;;;;;11.31;100.00;163521.72;5071662;28;20463;-58
2022/05/30 08:37:33;;;;;;;2.15;1.95;;;;;;;11.39;100.00;163543.31;5072706;28;20020;-59
2022/05/30 08:42:44;;;;;;;4.72;2.63;;;;;;;11.20;100.00;163492.03;5071189;28;20124;-59
2022/05/30 08:45:15;;;;;;;3.05;1.92;;;;;;;11.16;100.00;163481.19;5071191;28;20024;-59
2022/05/30 08:47:54;;;;;;;4.60;1.50;;;;;;;11.42;100.00;163550.06;5072420;28;20025;-59
2022/05/30 08:50:35;;;;;;;7.13;1.50;;;;;;;11.64;100.00;163608.16;5071083;28;20332;-59
2022/05/30 08:53:31;;;;;;;2.05;1.70;;;;;;;11.94;100.00;163686.50;5072640;28;20025;-59
2022/05/30 08:56:02;;;;;;;2.25;1.38;;;;;;;11.97;100.00;163694.63;5070699;28;20058;-59
2022/05/30 08:58:52;;;;;;;3.30;1.40;;;;;;;11.93;100.00;163683.81;5072501;28;20496;-59
2022/05/30 09:01:24;;;;;;;2.35;1.40;;;;;;;12.07;100.00;163720.28;5070806;28;20058;-59
2022/05/30 09:04:09;;;;;;;5.72;2.00;;;;;;;12.17;100.00;163746.00;5072388;28;20021;-59
2022/05/30 09:06:59;;;;;;;1.73;1.60;;;;;;;12.26;100.00;163768.97;5070961;28;20044;-59
2022/05/30 09:09:32;;;;;;;4.60;1.52;;;;;;;12.20;100.00;163754.09;5072313;28;20032;-59
2022/05/30 09:12:05;;;;;;;3.83;1.70;;;;;;;12.17;100.00;163746.00;5068560;28;20406;-60
2022/05/30 09:14:43;;;;;;;6.50;3.22;;;;;;;12.27;100.00;163773.00;5070284;28;20033;-59
2022/05/30 09:17:16;;;;;;;8.90;1.80;;;;;;;12.27;100.00;163773.00;5068949;28;20052;-59
2022/05/30 09:19:42;;;;;;;21.17;14.18;;;;;;;12.10;100.00;163727.09;5071156;28;20032;-59
2022/05/30 09:22:09;;;;;;;7.53;2.85;;;;;;;12.20;100.00;163754.09;5070033;28;20423;-59
2022/05/30 09:24:35;;;;;;;4.30;2.65;;;;;;;12.23;100.00;163762.22;5062393;28;20422;-59
2022/05/30 09:27:02;;;;;;;5.00;1.90;;;;;;;12.37;100.00;163800.03;5059829;28;20032;-60
2022/05/30 09:30:00;;;;;;;4.30;1.25;;;;;;;12.27;100.00;163773.00;5060434;28;20028;-59
2022/05/30 09:32:46;;;;;;;3.40;1.60;;;;;;;12.14;100.00;163737.88;5049433;28;20078;-59
2022/05/30 09:35:28;;;;;;;1.92;1.52;;;;;;;12.15;100.00;163741.91;5052235;28;20032;-58
2022/05/30 09:38:07;;;;;;;2.58;1.60;;;;;;;12.25;100.00;163767.59;5061773;28;20044;-58
2022/05/30 09:40:42;;;;;;;3.03;1.20;;;;;;;12.51;100.00;163835.16;5059884;28;20052;-58
2022/05/30 09:43:10;;;;;;;8.52;4.35;;;;;;;12.50;100.00;163832.47;5063462;28;20020;-58
2022/05/30 09:45:36;;;;;;;4.40;1.90;;;;;;;12.49;100.00;163829.75;5058474;28;20040;-59
2022/05/30 09:48:05;;;;;;;1.98;1.77;;;;;;;12.45;100.00;163820.28;5061595;28;20062;-59
2022/05/30 09:50:31;;;;;;;3.45;1.20;;;;;;;12.50;100.00;163832.47;5061869;28;20102;-58
2022/05/30 09:52:58;;;;;;;2.28;1.65;;;;;;;12.51;100.00;163835.16;5061540;28;20025;-58
2022/05/30 09:55:30;;;;;;;2.55;1.30;;;;;;;12.49;100.00;163831.13;5059307;28;20017;-58
2022/05/30 09:57:56;;;;;;;6.18;1.77;;;;;;;12.83;100.00;163920.31;5059220;28;20528;-59
2022/05/30 10:00:38;;;;;;;4.20;1.67;;;;;;;12.87;100.00;163928.44;5060221;28;20035;-59
2022/05/30 10:03:07;;;;;;;3.03;0.90;;;;;;;12.97;100.00;163956.81;5060291;28;20029;-59
2022/05/30 10:05:35;;;;;;;3.22;0.95;;;;;;;13.00;100.00;163964.91;5058486;28;20515;-59
2022/05/30 10:08:03;;;;;;;2.00;1.08;;;;;;;13.14;100.00;164000.09;5059285;28;20048;-59
2022/05/30 10:10:51;;;;;;;2.28;1.08;;;;;;;13.24;100.00;164025.78;5058805;28;20079;-59
2022/05/30 10:13:34;;;;;;;2.42;1.23;;;;;;;13.17;100.00;164009.56;5058460;28;20519;-59
2022/05/30 10:16:00;;;;;;;2.45;1.42;;;;;;;13.50;100.00;164094.78;5058402;28;20049;-59
2022/05/30 10:18:32;;;;;;;2.00;1.10;;;;;;;13.53;100.00;164102.88;5058327;28;20025;-59
2022/05/30 10:21:10;;;;;;;5.35;1.90;;;;;;;13.68;100.00;164140.72;5057253;28;20039;-59
2022/05/30 10:30:01;;;;;;;2.75;1.40;;;;;;;14.33;100.00;164311.19;5058625;28;20110;-59
2022/05/30 10:32:34;;;;;;;1.80;1.13;;;;;;;14.28;100.00;164300.34;5054402;28;20156;-58
2022/05/30 10:35:21;;;;;;;2.65;1.40;;;;;;;14.12;100.00;164257.03;5062497;28;20024;-59
2022/05/30 10:38:04;;;;;;;2.63;0.90;;;;;;;13.95;100.00;164212.41;5055610;28;20040;-58
2022/05/30 10:40:56;;;;;;;9.57;2.63;;;;;;;14.17;100.00;164270.59;5063141;28;20540;-59
2022/05/30 10:43:30;;;;;;;2.95;1.75;;;;;;;14.47;100.00;164349.06;5051220;28;20415;-58
2022/05/30 10:46:03;;;;;;;2.00;1.52;;;;;;;14.74;100.00;164419.47;5058873;28;20067;-59
2022/05/30 10:48:37;;;;;;;2.03;1.17;;;;;;;15.01;100.00;164491.19;5057693;28;20047;-59
2022/05/30 10:51:26;;;;;;;3.50;1.00;;;;;;;14.86;100.00;164451.91;5060498;28;20032;-59
2022/05/30 10:54:02;;;;;;;4.43;1.30;;;;;;;14.62;100.00;164386.94;5061459;28;20044;-59
2022/05/30 10:56:37;;;;;;;1.65;1.13;;;;;;;14.73;100.00;164416.75;5057260;28;20152;-58
2022/05/30 10:59:24;;;;;;;1.30;0.90;;;;;;;15.22;100.00;164546.72;5057587;28;20025;-58
2022/05/30 11:01:55;;;;;;;0.80;0.80;;;;;;;15.49;100.00;164617.06;5061230;28;20037;-58
2022/05/30 11:04:43;;;;;;;1.70;0.85;;;;;;;14.74;100.00;164419.47;5062697;28;20083;-58
2022/05/30 11:07:24;;;;;;;2.10;1.55;;;;;;;15.25;100.00;164552.09;5057388;28;20041;-58
2022/05/30 11:10:00;;;;;;;4.35;1.33;;;;;;;15.49;100.00;164617.06;5059684;28;20029;-58
2022/05/30 11:12:32;;;;;;;1.10;0.98;;;;;;;15.55;100.00;164633.31;5056437;28;20187;-58
2022/05/30 11:15:14;;;;;;;1.17;0.93;;;;;;;16.01;100.00;164752.53;5059962;28;20654;-57
2022/05/30 11:17:47;;;;;;;4.85;1.00;;;;;;;16.45;100.00;164869.00;5061249;28;20071;-58
2022/05/30 11:20:28;;;;;;;1.63;1.35;;;;;;;16.63;100.00;164915.06;5059755;28;20077;-58
2022/05/30 11:22:55;;;;;;;1.00;1.00;;;;;;;16.72;100.00;164939.41;5049381;28;20056;-58
2022/05/30 11:25:37;;;;;;;2.70;2.17;;;;;;;16.76;100.00;164948.91;5053264;28;20039;-58
2022/05/30 11:28:18;;;;;;;1.73;1.05;;;;;;;16.65;100.00;164921.84;5055611;28;20025;-58
2022/05/30 11:30:55;;;;;;;2.78;1.30;;;;;;;16.40;100.00;164855.47;5056551;28;20124;-58
2022/05/30 11:33:55;;;;;;;2.10;1.42;;;;;;;15.92;100.00;164729.50;5058196;28;20055;-58
2022/05/30 11:36:49;;;;;;;4.55;2.78;;;;;;;15.63;100.00;164652.25;5057059;28;20040;-58
2022/05/30 11:39:29;;;;;;;12.25;2.75;;;;;;;15.74;100.00;164682.06;5059414;28;20074;-58
2022/05/30 11:42:19;;;;;;;3.70;1.10;;;;;;;15.94;100.00;164734.91;5056949;28;20455;-58
2022/05/30 11:44:49;;;;;;;1.67;1.10;;;;;;;15.82;100.00;164703.69;5065041;28;20564;-58